• Join FlightAware (Why Join?)
  • Login
  • US Flag 
10:11PM EDT


 

Airport Tracker/Info


-or-


 

Live Flight TrackerFlight Track Log ✈ SWA34 ✈ 01-May-2013 ✈ KATL - KHOU

Flight Track Log - Related Links

Times and Time Zones

All times are in EDT time to prevent confusion due to time zone crossing. See the SWA34 flight status page for this flight to view local times or setup timezone preferences in your user account.

Time Position Orientation Groundspeed Altitude Reporting Facility
EDT Latitude Longitude Course Direction KTS MPH feet Rate Location/Type
12:48PM 33.6667 -84.3333 64° Northeast 200 230 3,800  Level Atlanta TRACON
12:49PM 33.7000 -84.2833 51° Northeast 272 313 5,800 2,220 Climbing Atlanta TRACON
12:51PM 33.8125 -84.4364 312° West 265 305 11,800 2,520 Climbing Atlanta Center
12:52PM 33.8119 -84.5639 270° West 340 391 14,600 2,580 Climbing Atlanta Center
12:53PM 33.7507 -84.6532 234° Southwest  Level FlightAware Approximate
12:53PM 33.7550 -84.6708 237° Southwest 343 395 17,000  Level Atlanta Center
12:54PM 33.6897 -84.7678 231° Southwest 364 419 18,900 1,980 Climbing Atlanta Center
12:55PM 33.6306 -84.8894 240° Southwest 407 468 21,000 1,980 Climbing Atlanta Center
12:56PM 33.5900 -85.0039 247° West 415 478 22,900 1,500 Climbing Atlanta Center
12:57PM 33.5431 -85.1281 246° West 415 478 24,000 1,140 Climbing Atlanta Center
12:58PM 33.5044 -85.2594 251° West 415 478 25,200 1,320 Climbing Atlanta Center
12:59PM 33.4758 -85.3986 256° West 425 489 26,700 1,800 Climbing Atlanta Center
01:00PM 33.4386 -85.5350 252° West 430 495 28,800 1,800 Climbing Atlanta Center
01:01PM 33.4017 -85.6636 251° West 424 488 30,300 1,500 Climbing Atlanta Center
01:02PM 33.3622 -85.8022 251° West 417 480 31,800 1,260 Climbing Atlanta Center
01:03PM 33.3247 -85.9283 250° West 406 467 32,900 1,080 Climbing Atlanta Center
01:04PM 33.2894 -86.0542 251° West 401 461 34,000 -480 Climbing Atlanta Center
01:05PM 33.2558 -86.1803 252° West 406 467 32,000 -1,020 Descending Atlanta Center
01:06PM 33.2203 -86.3083 252° West 401 461 32,000  Level Atlanta Center
01:07PM 33.1822 -86.4364 250° West 401 461 32,000  Level Atlanta Center
01:08PM 33.1442 -86.5694 251° West 409 471 32,000  Level Atlanta Center
01:09PM 33.1103 -86.6900 251° West 423 487 32,000  Level Atlanta Center
01:10PM 33.0697 -86.8250 250° West 423 487 32,000  Level Atlanta Center
01:11PM 33.0333 -86.9553 252° West 423 487 32,000  Level Atlanta Center
01:12PM 32.9925 -87.0900 250° West 423 487 32,000  Level Atlanta Center
01:13PM 32.9536 -87.2247 251° West 428 493 32,000  Level Atlanta Center
01:14PM 32.9167 -87.3572 252° West 422 486 32,000  Level Atlanta Center
01:15PM 32.8756 -87.4939 250° West 433 498 32,000  Level Atlanta Center
01:17PM 32.8064 -87.7103 249° West 433 498 32,000  Level Memphis Center
01:18PM 32.7636 -87.8497 250° West 433 498 32,000  Level Memphis Center
01:20PM 32.6831 -88.1236 251° West 451 519 32,000  Level Memphis Center
01:21PM 32.6417 -88.2628 251° West 451 519 32,100 840 Climbing Memphis Center
01:22PM 32.6022 -88.3944 250° West 446 513 33,700 1,140 Climbing Memphis Center
01:23PM 32.5625 -88.5283 251° West 439 505 34,400 1,140 Climbing Memphis Center
01:24PM 32.5225 -88.6500 249° West 427 491 36,000 780 Climbing Memphis Center
01:25PM 32.4844 -88.7786 251° West 413 475 36,000  Level Memphis Center
01:26PM 32.4464 -88.9025 250° West 413 475 36,000  Level Memphis Center
01:27PM 32.4058 -89.0286 249° West 413 475 36,000  Level Memphis Center
01:28PM 32.3656 -89.1547 249° West 413 475 36,000  Level Memphis Center
01:29PM 32.3228 -89.2831 249° West 413 475 36,000  Level Memphis Center
01:30PM 32.2842 -89.4114 250° West 413 475 36,000  Level Memphis Center
01:31PM 32.2411 -89.5394 248° West 413 475 36,000  Level Memphis Center
01:32PM 32.2025 -89.6700 251° West 413 475 36,000  Level Memphis Center
01:33PM 32.1592 -89.7978 248° West 418 481 36,000  Level Memphis Center
01:34PM 32.1200 -89.9256 250° West 418 481 36,000  Level Memphis Center
01:35PM 32.0767 -90.0583 249° West 423 487 36,000  Level Memphis Center
01:36PM 32.0350 -90.1883 249° West 428 493 36,000 -60 Level Memphis Center
01:37PM 31.9850 -90.3953 254° West 429 494 35,900  Descending Houston Center
01:38PM 31.9642 -90.5331 260° West 430 495 36,000  Climbing Houston Center
01:39PM 31.9425 -90.6694 259° West 427 491 36,000  Level Houston Center
01:41PM 31.9222 -90.7983 260° West 429 494 36,000  Level Houston Center
01:42PM 31.8950 -90.9617 259° West 426 490 36,000  Level Houston Center
01:43PM 31.8667 -91.0947 256° West 422 486 36,000  Level Houston Center
01:44PM 31.8231 -91.2225 248° West 420 483 36,000  Level Houston Center
01:45PM 31.7744 -91.3478 245° Southwest 421 484 36,000  Level Houston Center
01:46PM 31.7264 -91.4733 246° West 422 486 36,000  Level Houston Center
01:47PM 31.6786 -91.5961 245° Southwest 417 480 36,000  Level Houston Center
01:48PM 31.6208 -91.7433 245° Southwest 414 476 36,000  Level Houston Center
01:49PM 31.5728 -91.8669 245° Southwest 416 479 36,000  Level Houston Center
01:50PM 31.5247 -91.9903 245° Southwest 416 479 36,000  Level Houston Center
01:51PM 31.4775 -92.1044 244° Southwest 412 474 36,000  Level Houston Center
01:52PM 31.4300 -92.2272 246° West 415 478 36,000  Level Houston Center
01:53PM 31.3725 -92.3728 245° Southwest 413 475 36,000  Level Houston Center
01:54PM 31.3222 -92.4942 244° Southwest 417 480 36,000  Level Houston Center
01:55PM 31.2750 -92.6150 245° Southwest 412 474 36,000  Level Houston Center
01:56PM 31.2272 -92.7400 246° West 419 482 36,000  Level Houston Center
01:57PM 31.1786 -92.8603 245° Southwest 414 476 36,000  Level Houston Center
01:58PM 31.1203 -93.0044 245° Southwest 412 474 36,000  Level Houston Center
01:59PM 31.0711 -93.1250 245° Southwest 413 475 36,000  Level Houston Center
02:00PM 31.0236 -93.2447 245° Southwest 411 473 36,000  Level Houston Center
02:01PM 30.9728 -93.3644 244° Southwest 407 468 36,000  Level Houston Center
02:02PM 30.9269 -93.4806 245° Southwest 406 467 36,000  Level Houston Center
02:03PM 30.8775 -93.6006 244° Southwest 414 476 36,000 -540 Level Houston Center
02:04PM 30.8181 -93.7453 244° Southwest 416 479 35,000 -1,080 Descending Houston Center
02:05PM 30.7686 -93.8653 244° Southwest 417 480 33,800 -2,160 Descending Houston Center
02:06PM 30.7172 -93.9889 244° Southwest 423 487 30,500 -3,060 Descending Houston Center
02:07PM 30.6631 -94.1192 244° Southwest 442 509 27,500 -2,340 Descending Houston Center
02:08PM 30.6075 -94.2522 244° Southwest 448 516 26,100 -2,160 Descending Houston Center
02:09PM 30.5633 -94.3578 244° Southwest 448 516 23,900 -2,760 Descending Houston Center
02:09PM 30.5425 -94.4042 242° Southwest 450 518 22,800 -3,060 Descending Houston Center
02:10PM 30.5106 -94.4836 245° Southwest 443 510 20,800 -2,760 Descending Houston Center
02:11PM 30.4944 -94.5183 242° Southwest 436 502 20,000 -3,600 Descending Houston Center
02:11PM 30.4383 -94.6044 233° Southwest 430 495 17,100 -3,900 Descending Houston Center
02:12PM 30.4131 -94.6478 236° Southwest 430 495 16,000 -2,700 Descending Houston Center
02:12PM 30.3689 -94.7128 232° Southwest 402 463 14,400 -2,460 Descending Houston Center
02:13PM 30.3472 -94.7500 236° Southwest 400 460 13,500 -1,500 Descending Houston Center
02:13PM 30.3119 -94.8000 231° Southwest 356 410 13,000 -420 Descending Houston Center
02:14PM 30.2875 -94.8400 235° Southwest 358 412 13,100 60 Climbing Houston Center
02:14PM 30.2533 -94.8897 232° Southwest 349 402 13,100 -120 Level Houston Center
02:15PM 30.2292 -94.9303 235° Southwest 350 403 13,000 -120 Descending Houston Center
02:15PM 30.1875 -94.9922 232° Southwest 346 398 13,000  Level Houston Center
02:16PM 30.1722 -95.0169 234° Southwest 341 392 13,000 -660 Level Houston Center
02:16PM 30.1317 -95.0694 228° Southwest 342 394 12,400 -1,200 Descending Houston Center
02:17PM 30.0814 -95.0944 203° Southwest 356 410 11,800 -1,020 Descending Houston Center
02:17PM 30.0431 -95.1117 201° Southwest 352 405 11,400 -1,020 Descending Houston Center
02:18PM 29.9914 -95.1333 200° South 349 402 10,800 -1,020 Descending Houston Center
02:18PM 29.9419 -95.1531 199° South 356 410 10,400 -600 Descending Houston Center
02:19PM 29.8511 -95.1931 201° Southwest 340 391 10,000 -600 Descending Houston Center
02:20PM 29.8131 -95.2092 200° South 339 390 9,500 -1,200 Descending Houston Center
02:20PM 29.7703 -95.2269 200° South 306 352 8,800 -1,260 Descending Houston Center
02:21PM 29.7344 -95.2339 190° South 302 348 8,200 -1,260 Descending Houston Center
02:21PM 29.6892 -95.2344 181° South 290 334 7,500 -1,080 Descending Houston Center
02:22PM 29.6397 -95.2372 183° South 288 331 7,100 -600 Descending Houston Center
02:22PM 29.6078 -95.2394 183° South 247 284 6,900 -720 Descending Houston Center
02:23PM 29.5728 -95.2428 185° South 254 292 6,400 -900 Descending Houston Center
02:23PM 29.5444 -95.2592 207° Southwest 233 268 6,000 -420 Descending Houston Center
02:24PM 29.5200 -95.2844 222° Southwest 235 270 6,000 -420 Level Houston Center
02:24PM 29.4967 -95.3106 224° Southwest 234 269 5,600 -720 Descending Houston Center
02:25PM 29.4739 -95.3350 223° Southwest 234 269 5,300 -600 Descending Houston Center
02:25PM 29.4569 -95.3586 231° Southwest 203 234 5,000 -300 Descending Houston Center
02:26PM 29.4247 -95.3897 220° Southwest 219 252 5,000 -540 Level Houston Center
02:26PM 29.4133 -95.4094 236° Southwest 210 242 4,500 -1,080 Descending Houston Center
02:27PM 29.4286 -95.4478 295° West 218 251 3,900 -1,080 Descending Houston Center
02:28PM 29.4800 -95.4506 357° North 208 239 2,700 -960 Descending Houston Center
02:29PM 29.5256 -95.4125 36° Northeast 205 236 2,000 -300 Descending Houston Center
02:30PM 29.5614 -95.3714 45° Northeast 194 223 2,100 -420 Climbing Houston Center
02:31PM 29.5972 -95.3317 44° Northeast 185 213 1,200 -900 Descending Houston Center
02:32PM 29.6333 -95.2928 43° Northeast 160 184 300 -540 Descending Houston Center
02:33PM 29.6631 -95.2628 41° Northeast 156 180 200 -120 Descending Houston Center